Time;durP1;ratioP1;P1;durP2;ratioP2;P2;SDS_P1;SDS_P2;PMS_P1;PMS_P2;Temp;Humidity;BMP_temperature;BMP_pressure;BME280_temperature;BME280_humidity;BME280_pressure;Samples;Min_cycle;Max_cycle;Signal;HPM_P1;HPM_P2
2022/11/29 00:01:19;;;;;;;36.22;19.35;;;10.00;84.70;;;;;;4997433;28;20048;-71
2022/11/29 00:03:45;;;;;;;33.58;18.58;;;10.10;84.80;;;;;;5001269;28;20073;-71
2022/11/29 00:06:14;;;;;;;36.15;18.98;;;10.00;84.70;;;;;;4984599;28;20096;-71
2022/11/29 00:08:40;;;;;;;34.28;19.42;;;10.00;84.70;;;;;;4981578;28;20042;-71
2022/11/29 00:12:11;;;;;;;27.38;15.82;;;10.00;84.60;;;;;;4997587;28;20069;-71
2022/11/29 00:14:11;;;;;;;24.52;15.57;;;10.00;84.50;;;;;;4993894;28;20057;-71
2022/11/29 00:16:39;;;;;;;26.50;14.43;;;10.00;84.50;;;;;;4997116;28;20556;-71
2022/11/29 00:19:05;;;;;;;22.05;13.15;;;10.00;84.30;;;;;;5011926;28;20046;-71
2022/11/29 00:21:31;;;;;;;22.45;12.38;;;10.00;84.30;;;;;;4981980;28;20042;-71
2022/11/29 00:23:57;;;;;;;20.63;13.05;;;10.00;84.20;;;;;;4981580;28;20115;-71
2022/11/29 00:26:22;;;;;;;23.98;13.52;;;10.00;84.10;;;;;;4981198;28;20057;-71
2022/11/29 00:28:48;;;;;;;22.25;12.77;;;10.00;84.10;;;;;;4964721;28;20171;-71
2022/11/29 00:31:20;;;;;;;20.63;12.93;;;10.00;84.00;;;;;;4994655;28;20029;-71
2022/11/29 00:33:46;;;;;;;23.42;14.07;;;9.90;83.90;;;;;;4997290;28;20085;-71
2022/11/29 00:36:12;;;;;;;20.90;12.70;;;9.90;83.90;;;;;;4996722;28;21525;-71
2022/11/29 00:38:37;;;;;;;21.40;12.57;;;9.90;83.90;;;;;;4997578;28;20095;-71
2022/11/29 00:41:04;;;;;;;20.52;12.20;;;9.90;83.90;;;;;;4978540;28;20042;-71
2022/11/29 00:43:29;;;;;;;21.75;12.82;;;9.90;83.90;;;;;;4997059;28;20045;-71
2022/11/29 00:45:56;;;;;;;21.58;13.00;;;9.90;83.90;;;;;;4979013;28;20054;-71
2022/11/29 00:48:22;;;;;;;21.02;12.20;;;9.90;83.90;;;;;;4998502;28;20049;-71
2022/11/29 00:50:47;;;;;;;20.45;12.65;;;9.90;83.80;;;;;;4996806;28;20409;-71
2022/11/29 00:53:13;;;;;;;22.05;12.68;;;9.90;83.80;;;;;;4996719;28;20044;-71
2022/11/29 00:55:38;;;;;;;20.05;12.23;;;9.90;83.80;;;;;;4997147;28;20539;-71
2022/11/29 00:58:05;;;;;;;19.27;11.48;;;9.90;83.80;;;;;;4996859;28;20452;-71
2022/11/29 01:00:30;;;;;;;18.60;12.27;;;9.90;83.70;;;;;;4980571;28;20033;-71
2022/11/29 01:02:56;;;;;;;20.90;12.35;;;9.90;83.70;;;;;;4995498;28;20029;-71
2022/11/29 01:05:22;;;;;;;18.45;11.65;;;9.80;83.60;;;;;;4996318;28;20050;-71
2022/11/29 01:07:48;;;;;;;16.98;11.35;;;9.80;84.00;;;;;;4995235;28;20034;-71
2022/11/29 01:10:13;;;;;;;19.55;12.63;;;9.80;84.00;;;;;;4981574;28;20033;-71
2022/11/29 01:12:39;;;;;;;17.02;11.35;;;9.80;83.50;;;;;;4996331;28;20050;-71
2022/11/29 01:15:06;;;;;;;18.45;11.07;;;9.90;83.60;;;;;;4996043;28;20124;-71
2022/11/29 01:17:34;;;;;;;20.38;12.27;;;9.80;83.50;;;;;;5000515;28;21678;-71
2022/11/29 01:20:00;;;;;;;19.52;11.52;;;9.80;83.50;;;;;;4980101;28;20042;-71
2022/11/29 01:22:26;;;;;;;18.38;11.98;;;9.80;83.50;;;;;;4996073;28;20433;-71
2022/11/29 01:24:52;;;;;;;17.10;11.43;;;9.80;83.50;;;;;;4996032;28;20034;-71
2022/11/29 01:27:17;;;;;;;17.15;11.07;;;9.80;83.50;;;;;;4995767;28;20037;-71
2022/11/29 01:29:43;;;;;;;19.15;11.82;;;9.80;83.40;;;;;;4996525;28;20124;-71
2022/11/29 01:32:11;;;;;;;19.08;12.40;;;9.80;83.40;;;;;;4974267;28;20037;-71
2022/11/29 01:34:37;;;;;;;15.88;10.25;;;9.80;83.40;;;;;;4995992;28;20117;-71
2022/11/29 01:37:03;;;;;;;18.25;11.32;;;9.80;83.40;;;;;;4997381;28;20409;-71
2022/11/29 01:39:28;;;;;;;18.23;11.07;;;9.70;83.40;;;;;;4996033;28;20038;-71
2022/11/29 01:41:54;;;;;;;18.63;11.15;;;9.80;83.40;;;;;;4994772;28;20044;-71
2022/11/29 01:44:19;;;;;;;17.23;11.35;;;9.80;83.40;;;;;;4979812;28;20096;-71
2022/11/29 01:46:47;;;;;;;15.75;9.75;;;9.80;83.40;;;;;;4997752;28;20048;-71
2022/11/29 01:49:20;;;;;;;17.63;10.75;;;9.80;83.40;;;;;;4996018;28;20481;-71
2022/11/29 01:51:58;;;;;;;15.65;9.77;;;9.70;83.30;;;;;;4995517;28;20117;-71
2022/11/29 01:54:24;;;;;;;20.27;11.98;;;9.80;83.40;;;;;;4996060;28;20096;-71
2022/11/29 01:56:51;;;;;;;17.60;10.38;;;9.70;83.30;;;;;;4995988;28;20054;-71
2022/11/29 01:59:26;;;;;;;16.70;10.82;;;9.70;83.30;;;;;;4995376;28;20034;-71
2022/11/29 02:01:56;;;;;;;15.65;10.18;;;9.80;83.30;;;;;;4995751;28;20069;-71
2022/11/29 02:04:21;;;;;;;17.20;10.07;;;9.70;83.20;;;;;;4995157;28;20048;-71
2022/11/29 02:06:47;;;;;;;16.52;10.90;;;9.70;83.20;;;;;;4996988;28;20393;-71
2022/11/29 02:09:20;;;;;;;15.88;9.35;;;9.70;83.20;;;;;;4979289;28;20088;-71
2022/11/29 02:12:11;;;;;;;17.73;11.13;;;9.70;83.20;;;;;;4976294;28;20096;-71
2022/11/29 02:15:18;;;;;;;15.95;10.60;;;9.70;83.20;;;;;;4995464;28;20061;-71
2022/11/29 02:18:09;;;;;;;15.77;10.38;;;9.70;83.20;;;;;;4995937;28;20534;-71
2022/11/29 02:21:05;;;;;;;16.58;10.48;;;9.60;83.20;;;;;;4992688;28;20046;-71
2022/11/29 02:24:04;;;;;;;16.27;10.63;;;9.60;83.20;;;;;;4995316;28;20042;-71
2022/11/29 02:27:01;;;;;;;14.45;9.45;;;9.70;83.20;;;;;;4994733;28;20045;-71
2022/11/29 02:29:33;;;;;;;14.70;10.02;;;9.60;83.20;;;;;;4996255;28;20034;-71
2022/11/29 02:32:36;;;;;;;15.05;9.85;;;9.60;83.30;;;;;;4980469;28;20113;-71
2022/11/29 02:35:23;;;;;;;15.20;10.02;;;9.60;83.20;;;;;;4995106;28;20117;-71
2022/11/29 02:38:01;;;;;;;17.30;10.90;;;9.60;83.30;;;;;;4978713;28;20378;-71
2022/11/29 02:40:27;;;;;;;19.50;10.18;;;9.60;83.20;;;;;;4978645;28;20428;-71
2022/11/29 02:43:11;;;;;;;17.42;10.32;;;9.60;83.30;;;;;;4979413;28;20087;-71
2022/11/29 02:45:42;;;;;;;;;;;9.60;83.30;;;;;;4995477;28;20050;-71
2022/11/29 02:48:20;;;;;;;14.38;9.40;;;9.60;83.10;;;;;;4979582;28;19944;-71
2022/11/29 02:50:54;;;;;;;15.13;9.73;;;9.50;83.40;;;;;;4995074;28;20421;-71
2022/11/29 02:53:31;;;;;;;;;;;9.60;83.40;;;;;;4995304;28;20042;-71
2022/11/29 02:56:31;;;;;;;15.07;9.38;;;9.60;83.20;;;;;;4994635;28;19917;-71
2022/11/29 02:59:21;;;;;;;15.00;10.27;;;9.60;83.50;;;;;;4977953;28;20033;-71
2022/11/29 03:02:18;;;;;;;15.55;9.48;;;9.60;83.50;;;;;;4994476;28;20392;-71
2022/11/29 03:05:19;;;;;;;15.50;9.50;;;9.50;83.40;;;;;;4994335;28;20037;-71
2022/11/29 03:07:50;;;;;;;13.80;8.80;;;9.60;83.40;;;;;;4978594;28;20069;-71
2022/11/29 03:10:30;;;;;;;15.57;9.98;;;9.50;83.40;;;;;;4994823;28;20041;-71
2022/11/29 03:12:57;;;;;;;14.48;9.30;;;9.60;83.50;;;;;;4994405;28;20554;-71
2022/11/29 03:15:31;;;;;;;16.35;10.20;;;9.60;83.50;;;;;;4977532;28;20045;-71
2022/11/29 03:18:05;;;;;;;13.98;8.77;;;9.60;83.50;;;;;;4994412;28;20044;-71
2022/11/29 03:20:51;;;;;;;14.98;9.68;;;9.60;83.50;;;;;;5009331;28;20523;-71
2022/11/29 03:23:32;;;;;;;16.95;10.65;;;9.50;83.50;;;;;;4976321;28;20042;-71
2022/11/29 03:26:00;;;;;;;14.20;9.38;;;9.50;83.50;;;;;;4993705;28;20095;-71
2022/11/29 03:28:32;;;;;;;17.38;10.30;;;9.50;83.50;;;;;;4998286;28;20033;-71
2022/11/29 03:31:10;;;;;;;20.73;11.27;;;9.50;83.50;;;;;;4981824;28;20034;-71
2022/11/29 03:33:41;;;;;;;18.13;11.18;;;9.60;83.50;;;;;;4998002;28;20101;-71
2022/11/29 03:36:26;;;;;;;16.08;10.10;;;9.50;83.50;;;;;;4981263;28;20042;-71
2022/11/29 03:38:53;;;;;;;;;;;9.60;83.50;;;;;;4998585;28;20042;-71
2022/11/29 03:41:23;;;;;;;16.52;9.65;;;9.50;83.30;;;;;;4998276;28;19964;-71
2022/11/29 03:44:22;;;;;;;18.02;10.50;;;9.50;83.60;;;;;;4999355;28;20097;-71
2022/11/29 03:46:55;;;;;;;19.25;10.35;;;9.50;83.50;;;;;;4997746;28;20490;-71
2022/11/29 03:49:36;;;;;;;17.30;10.55;;;9.50;83.60;;;;;;4997851;28;20034;-71
2022/11/29 03:52:13;;;;;;;17.00;10.98;;;9.50;83.60;;;;;;4998041;28;20034;-71
2022/11/29 03:54:52;;;;;;;21.50;12.93;;;9.50;83.60;;;;;;4981765;28;20072;-71
2022/11/29 03:57:30;;;;;;;17.13;10.45;;;9.50;83.60;;;;;;4997896;28;20046;-71
2022/11/29 04:00:05;;;;;;;17.33;10.77;;;9.50;83.60;;;;;;4996764;28;20042;-71
2022/11/29 04:02:52;;;;;;;22.30;11.68;;;9.50;83.60;;;;;;4982514;28;20050;-71
2022/11/29 04:05:39;;;;;;;19.77;11.52;;;9.50;83.60;;;;;;4997773;28;20042;-71
2022/11/29 04:08:58;;;;;;;20.77;12.05;;;9.50;83.60;;;;;;4997604;28;20038;-70
2022/11/29 04:11:57;;;;;;;19.20;11.07;;;9.50;83.40;;;;;;4917580;29;20035;-70
2022/11/29 04:14:55;;;;;;;19.10;11.35;;;9.40;83.40;;;;;;4981351;28;20141;-70
2022/11/29 04:18:05;;;;;;;18.90;12.00;;;9.40;83.40;;;;;;4997663;28;20053;-70
2022/11/29 04:20:57;;;;;;;18.63;10.93;;;9.50;83.50;;;;;;4973080;28;20526;-70
2022/11/29 04:23:41;;;;;;;19.55;11.63;;;9.50;83.50;;;;;;4997033;28;20052;-70
2022/11/29 04:26:34;;;;;;;31.27;12.38;;;9.40;83.50;;;;;;4997734;28;20034;-70
2022/11/29 04:29:07;;;;;;;19.40;11.40;;;9.40;83.60;;;;;;4997285;28;20557;-70
2022/11/29 04:31:40;;;;;;;21.15;12.35;;;9.40;83.60;;;;;;4997395;28;20038;-70
2022/11/29 04:34:19;;;;;;;19.73;12.05;;;9.40;83.70;;;;;;4998444;28;20445;-70
2022/11/29 04:36:50;;;;;;;17.08;10.60;;;9.40;83.70;;;;;;4995592;28;20397;-70
2022/11/29 04:39:25;;;;;;;20.58;12.50;;;9.50;83.70;;;;;;4996971;28;20037;-70
2022/11/29 04:42:09;;;;;;;18.92;11.38;;;9.40;83.60;;;;;;4996380;28;20069;-70
2022/11/29 04:44:53;;;;;;;18.05;11.02;;;9.40;83.50;;;;;;4991529;28;20108;-70
2022/11/29 04:47:22;;;;;;;19.63;11.68;;;9.40;83.50;;;;;;4996907;28;20038;-70
2022/11/29 04:50:05;;;;;;;17.85;10.48;;;9.40;83.50;;;;;;4996725;28;20088;-70
2022/11/29 04:53:03;;;;;;;21.15;11.35;;;9.40;83.50;;;;;;4996974;28;20088;-71
2022/11/29 04:55:48;;;;;;;20.05;10.43;;;9.40;83.50;;;;;;4996865;28;20037;-70
2022/11/29 04:58:28;;;;;;;21.27;11.35;;;9.40;83.50;;;;;;4972291;28;20422;-70
2022/11/29 05:01:06;;;;;;;18.27;10.55;;;9.40;83.50;;;;;;4996638;28;20401;-70
2022/11/29 05:03:43;;;;;;;15.32;9.75;;;9.40;83.40;;;;;;4996631;28;20040;-70
2022/11/29 05:06:09;;;;;;;17.50;10.70;;;9.40;83.40;;;;;;4996198;28;20073;-71
2022/11/29 05:09:04;;;;;;;16.05;9.82;;;9.40;83.40;;;;;;4996377;28;20069;-70
2022/11/29 05:11:45;;;;;;;14.80;9.82;;;9.40;83.40;;;;;;4995595;28;20129;-70
2022/11/29 05:14:48;;;;;;;15.65;10.10;;;9.40;83.30;;;;;;4999249;28;20049;-70
2022/11/29 05:17:42;;;;;;;15.23;10.10;;;9.40;83.30;;;;;;4996119;28;20042;-70
2022/11/29 05:20:20;;;;;;;17.17;10.85;;;9.40;83.30;;;;;;4996132;28;20124;-70
2022/11/29 05:23:04;;;;;;;22.27;11.35;;;9.30;83.30;;;;;;4996336;28;20125;-70
2022/11/29 05:25:33;;;;;;;13.75;9.52;;;9.40;83.30;;;;;;4995674;28;20084;-70
2022/11/29 05:28:36;;;;;;;14.88;10.05;;;9.40;83.20;;;;;;4995589;28;20444;-70
2022/11/29 05:31:23;;;;;;;13.63;9.65;;;9.30;83.10;;;;;;4990084;28;20038;-70
2022/11/29 05:34:21;;;;;;;13.90;9.32;;;9.30;83.20;;;;;;4997431;28;20040;-70
2022/11/29 05:37:21;;;;;;;23.85;9.40;;;9.30;83.20;;;;;;4994730;28;20049;-70
2022/11/29 05:40:22;;;;;;;13.15;9.27;;;9.30;83.20;;;;;;4995263;28;20046;-71
2022/11/29 05:43:14;;;;;;;12.90;9.23;;;9.30;83.20;;;;;;4991422;28;20045;-70
2022/11/29 05:45:45;;;;;;;15.27;9.55;;;9.30;83.10;;;;;;4996093;28;20038;-70
2022/11/29 05:48:30;;;;;;;16.27;9.63;;;9.30;83.20;;;;;;4995764;28;20069;-70
2022/11/29 05:51:13;;;;;;;13.68;8.45;;;9.40;83.20;;;;;;4995946;28;20033;-70
2022/11/29 05:53:58;;;;;;;13.82;9.45;;;9.30;83.20;;;;;;4996378;28;20045;-70
2022/11/29 05:56:38;;;;;;;13.65;9.60;;;9.30;83.20;;;;;;4995162;28;20050;-70
2022/11/29 05:59:12;;;;;;;14.30;9.95;;;9.30;83.20;;;;;;4994313;28;20095;-70
2022/11/29 06:02:07;;;;;;;14.63;9.77;;;9.30;83.30;;;;;;4995696;28;20038;-70
2022/11/29 06:04:38;;;;;;;13.02;8.85;;;9.30;83.20;;;;;;4994314;28;20077;-70
2022/11/29 06:07:38;;;;;;;13.57;9.23;;;9.30;83.20;;;;;;4994928;28;20041;-70
2022/11/29 06:10:18;;;;;;;14.13;9.30;;;9.30;83.10;;;;;;4995480;28;20041;-71
2022/11/29 06:12:57;;;;;;;13.68;8.88;;;9.30;83.20;;;;;;4994914;28;20087;-71
2022/11/29 06:15:47;;;;;;;13.25;9.25;;;9.30;83.20;;;;;;4979906;28;20453;-71
2022/11/29 06:18:45;;;;;;;13.75;9.18;;;9.30;83.20;;;;;;4993598;28;20501;-71
2022/11/29 06:21:21;;;;;;;16.67;9.40;;;9.30;83.10;;;;;;4994965;28;20041;-71
2022/11/29 06:24:28;;;;;;;14.52;8.73;;;9.30;83.10;;;;;;4995211;28;20128;-71
2022/11/29 06:27:15;;;;;;;13.15;9.00;;;9.30;82.80;;;;;;4941331;28;20477;-71
2022/11/29 06:29:50;;;;;;;14.13;9.50;;;9.20;83.00;;;;;;4978934;28;20042;-71
2022/11/29 06:32:42;;;;;;;13.65;9.68;;;9.20;82.90;;;;;;4994689;28;20042;-71
2022/11/29 06:35:37;;;;;;;12.85;8.57;;;9.20;82.90;;;;;;4985176;28;20042;-70
2022/11/29 06:38:29;;;;;;;19.08;8.90;;;9.20;82.90;;;;;;4952700;28;20137;-71
2022/11/29 06:40:57;;;;;;;14.70;8.45;;;9.20;82.80;;;;;;4994242;28;20045;-71
2022/11/29 06:43:24;;;;;;;14.32;8.95;;;9.20;82.90;;;;;;5001097;28;20113;-71
2022/11/29 06:46:22;;;;;;;11.80;8.48;;;9.20;82.80;;;;;;4996748;28;20034;-71
2022/11/29 06:49:13;;;;;;;13.60;8.43;;;9.20;82.70;;;;;;4995946;28;20042;-71
2022/11/29 06:51:38;;;;;;;12.02;8.07;;;9.20;82.80;;;;;;4994859;28;20592;-71
2022/11/29 06:54:25;;;;;;;12.85;9.05;;;9.20;82.80;;;;;;5003033;28;20046;-71
2022/11/29 06:56:57;;;;;;;11.13;7.82;;;9.20;82.80;;;;;;5015408;28;20172;-71
2022/11/29 06:59:39;;;;;;;10.85;8.43;;;9.20;82.90;;;;;;5010617;28;20064;-71
2022/11/29 07:02:27;;;;;;;10.77;8.23;;;9.20;82.80;;;;;;4995106;28;20073;-71
2022/11/29 07:05:20;;;;;;;11.93;8.32;;;9.10;82.70;;;;;;4995559;28;20056;-71
2022/11/29 07:07:47;;;;;;;10.27;7.97;;;9.10;82.80;;;;;;4978927;28;20088;-71
2022/11/29 07:10:17;;;;;;;13.48;9.20;;;9.10;82.80;;;;;;4995437;28;20100;-71
2022/11/29 07:12:47;;;;;;;12.13;8.73;;;9.10;82.90;;;;;;4975478;28;20097;-71
2022/11/29 07:15:18;;;;;;;13.48;9.18;;;9.10;82.80;;;;;;4976671;28;20050;-71
2022/11/29 07:17:50;;;;;;;11.55;8.52;;;9.10;82.90;;;;;;4979292;28;20096;-71
2022/11/29 07:20:35;;;;;;;12.25;8.80;;;9.10;82.90;;;;;;4995540;28;20081;-71
2022/11/29 07:23:30;;;;;;;14.65;9.30;;;9.20;82.90;;;;;;4991143;28;20052;-71
2022/11/29 07:26:15;;;;;;;12.90;8.80;;;9.10;82.90;;;;;;4995424;28;20507;-71
2022/11/29 07:28:53;;;;;;;12.25;8.10;;;9.10;82.90;;;;;;4995331;28;20042;-71
2022/11/29 07:31:37;;;;;;;10.98;7.63;;;9.10;82.90;;;;;;4979315;28;20069;-71
2022/11/29 07:34:36;;;;;;;11.40;8.00;;;9.10;82.90;;;;;;4989782;28;20053;-71
2022/11/29 07:37:35;;;;;;;10.73;8.00;;;9.10;82.90;;;;;;4959772;28;20101;-71
2022/11/29 07:40:30;;;;;;;13.60;8.38;;;9.10;82.80;;;;;;4965462;28;20042;-71
2022/11/29 07:43:07;;;;;;;11.65;8.23;;;9.10;82.80;;;;;;4995515;28;20550;-71
2022/11/29 07:45:35;;;;;;;13.38;8.55;;;9.10;82.80;;;;;;4995256;28;20053;-71
2022/11/29 07:48:01;;;;;;;12.68;8.80;;;9.20;82.80;;;;;;4998166;28;20038;-71
2022/11/29 07:50:28;;;;;;;11.75;7.63;;;9.10;82.70;;;;;;5014843;28;20037;-71
2022/11/29 07:52:54;;;;;;;11.57;8.43;;;9.10;82.70;;;;;;5014850;28;20073;-71
2022/11/29 07:55:23;;;;;;;13.50;8.52;;;9.10;82.70;;;;;;5015047;28;20038;-71
2022/11/29 07:57:50;;;;;;;11.77;8.77;;;9.10;82.70;;;;;;4997466;28;20046;-71
2022/11/29 08:00:17;;;;;;;11.90;8.63;;;9.10;82.70;;;;;;4994315;28;20095;-71
2022/11/29 08:02:44;;;;;;;11.40;8.02;;;9.10;82.60;;;;;;4995058;28;20490;-71
2022/11/29 08:05:10;;;;;;;12.73;8.77;;;9.10;83.00;;;;;;4991658;28;20046;-71
2022/11/29 08:07:38;;;;;;;13.45;9.30;;;9.10;82.60;;;;;;4975503;28;20046;-72
2022/11/29 08:10:07;;;;;;;11.32;8.55;;;9.10;82.60;;;;;;4986661;28;20049;-72
2022/11/29 08:12:33;;;;;;;12.32;9.07;;;9.10;82.60;;;;;;4996873;28;20489;-71
2022/11/29 08:14:59;;;;;;;12.25;9.50;;;9.10;82.50;;;;;;4982125;28;20096;-71
2022/11/29 08:17:24;;;;;;;11.50;8.50;;;9.10;82.50;;;;;;4966479;28;20046;-71
2022/11/29 08:19:51;;;;;;;12.75;8.40;;;9.10;82.50;;;;;;4982405;28;20050;-71
2022/11/29 08:22:17;;;;;;;13.40;9.40;;;9.10;82.50;;;;;;4981868;28;20041;-71
2022/11/29 08:24:43;;;;;;;11.38;8.73;;;9.10;82.50;;;;;;5013648;28;20394;-72
2022/11/29 08:27:08;;;;;;;12.25;9.18;;;9.10;82.50;;;;;;5017948;28;20045;-71
2022/11/29 08:29:34;;;;;;;11.95;8.60;;;9.10;82.40;;;;;;5001995;28;20140;-71
2022/11/29 08:32:00;;;;;;;12.43;8.20;;;9.10;82.40;;;;;;5017839;28;20037;-71
2022/11/29 08:34:26;;;;;;;12.73;8.63;;;9.10;82.30;;;;;;5018018;28;20038;-71
2022/11/29 08:36:54;;;;;;;10.55;7.40;;;9.10;82.30;;;;;;4998963;28;20049;-71
2022/11/29 08:39:20;;;;;;;11.38;8.43;;;9.10;82.30;;;;;;4998328;28;20041;-71
2022/11/29 08:41:48;;;;;;;12.70;9.15;;;9.10;82.30;;;;;;4998239;28;20046;-71
2022/11/29 08:44:13;;;;;;;10.77;7.90;;;9.10;82.30;;;;;;4982086;28;20049;-71
2022/11/29 08:49:23;;;;;;;9.37;7.53;;;9.00;82.20;;;;;;4998113;28;20049;-71
2022/11/29 08:51:51;;;;;;;11.23;7.88;;;9.00;82.20;;;;;;4997961;28;20359;-71
2022/11/29 08:54:16;;;;;;;9.48;7.20;;;9.00;82.30;;;;;;4999216;28;20386;-71
2022/11/29 08:56:42;;;;;;;8.98;7.28;;;9.00;82.20;;;;;;4998069;28;20048;-71
2022/11/29 08:59:08;;;;;;;9.95;7.32;;;9.00;82.30;;;;;;4997960;28;20042;-71
2022/11/29 09:01:33;;;;;;;10.73;7.88;;;9.00;82.30;;;;;;4997851;28;20050;-71
2022/11/29 09:04:01;;;;;;;10.75;7.72;;;9.00;82.30;;;;;;4981552;28;20042;-71
2022/11/29 09:06:37;;;;;;;11.45;8.02;;;9.00;82.30;;;;;;4997851;28;20053;-71
2022/11/29 09:09:03;;;;;;;11.32;8.07;;;9.10;82.40;;;;;;4997998;28;20046;-71
2022/11/29 09:11:31;;;;;;;11.18;8.35;;;9.10;82.40;;;;;;4999003;28;20042;-71
2022/11/29 09:14:00;;;;;;;10.77;7.80;;;9.10;82.40;;;;;;4997555;28;20510;-71
2022/11/29 09:16:27;;;;;;;10.60;7.97;;;9.10;82.40;;;;;;4981403;28;20129;-71
2022/11/29 09:18:54;;;;;;;9.88;7.47;;;9.10;82.40;;;;;;4997687;28;20128;-71
2022/11/29 09:21:25;;;;;;;13.20;8.00;;;9.10;82.40;;;;;;4965569;28;20042;-71
2022/11/29 09:23:57;;;;;;;9.75;7.55;;;9.00;82.30;;;;;;4996461;28;20049;-72
2022/11/29 09:26:26;;;;;;;11.75;7.53;;;9.10;82.30;;;;;;5004741;28;20053;-71
2022/11/29 09:28:52;;;;;;;9.77;6.72;;;9.10;82.30;;;;;;4984688;28;20393;-71
2022/11/29 09:31:19;;;;;;;10.20;7.18;;;9.10;82.30;;;;;;5016895;28;20124;-71
2022/11/29 09:33:45;;;;;;;10.50;6.43;;;9.10;82.30;;;;;;5016827;28;20049;-71
2022/11/29 09:36:11;;;;;;;9.07;6.85;;;9.10;82.30;;;;;;5000478;28;20125;-71
2022/11/29 09:38:38;;;;;;;10.10;6.50;;;9.10;82.20;;;;;;5000952;28;20133;-72
2022/11/29 09:41:18;;;;;;;9.07;6.95;;;9.10;82.20;;;;;;5000472;28;20041;-71
2022/11/29 09:44:02;;;;;;;9.30;7.18;;;9.10;82.30;;;;;;5015039;28;20041;-72
2022/11/29 09:46:52;;;;;;;9.48;7.25;;;9.10;82.20;;;;;;5016757;28;20523;-72
2022/11/29 09:49:42;;;;;;;11.25;7.57;;;9.10;82.20;;;;;;5000151;28;20132;-72
2022/11/29 09:52:42;;;;;;;8.85;6.57;;;9.10;82.20;;;;;;5016571;28;20038;-72
2022/11/29 09:55:35;;;;;;;12.10;6.75;;;9.10;82.10;;;;;;5000170;28;20080;-71
2022/11/29 09:58:02;;;;;;;10.13;6.78;;;9.10;82.10;;;;;;5000092;28;20126;-71
2022/11/29 10:00:30;;;;;;;11.90;6.68;;;9.00;82.20;;;;;;4998226;28;20048;-71
2022/11/29 10:03:13;;;;;;;10.57;6.57;;;9.10;82.30;;;;;;5016564;28;20049;-71
2022/11/29 10:05:49;;;;;;;8.35;6.15;;;9.10;82.30;;;;;;5016146;28;20045;-72
2022/11/29 10:08:25;;;;;;;12.88;6.68;;;9.10;82.30;;;;;;5016209;28;20042;-71
2022/11/29 10:11:01;;;;;;;9.68;6.18;;;9.10;82.30;;;;;;5016280;28;20107;-72
2022/11/29 10:13:33;;;;;;;11.27;6.82;;;9.10;82.30;;;;;;5016025;28;20108;-72
2022/11/29 10:16:13;;;;;;;10.55;6.53;;;9.10;82.30;;;;;;5006619;28;20405;-72
2022/11/29 10:18:46;;;;;;;11.25;6.57;;;9.10;82.30;;;;;;4980443;28;20042;-72
2022/11/29 10:21:27;;;;;;;9.07;6.43;;;9.10;82.30;;;;;;4996397;28;20129;-72
2022/11/29 10:24:16;;;;;;;9.27;6.25;;;9.20;82.40;;;;;;4980063;28;20509;-72
2022/11/29 10:26:42;;;;;;;9.82;5.90;;;9.20;82.30;;;;;;4980350;28;20048;-72
2022/11/29 10:29:15;;;;;;;10.30;6.10;;;9.10;82.40;;;;;;4980387;28;20389;-72
2022/11/29 10:31:48;;;;;;;10.23;5.95;;;9.20;82.50;;;;;;5001729;28;20037;-72
2022/11/29 10:34:25;;;;;;;7.93;5.40;;;9.20;82.50;;;;;;5015375;28;20048;-72
2022/11/29 10:36:58;;;;;;;11.63;5.65;;;9.30;82.60;;;;;;4999545;28;20049;-71
2022/11/29 10:39:47;;;;;;;10.57;5.85;;;9.20;82.60;;;;;;5015752;28;20488;-71
2022/11/29 10:45:29;;;;;;;8.35;5.05;;;9.30;82.70;;;;;;5015638;28;20107;-72
2022/11/29 10:48:13;;;;;;;12.40;5.85;;;9.30;82.80;;;;;;5013381;28;20440;-72
2022/11/29 10:50:42;;;;;;;9.82;5.57;;;9.30;82.80;;;;;;4999158;28;20061;-72
2022/11/29 10:53:14;;;;;;;9.35;6.05;;;9.30;82.80;;;;;;4983445;28;20041;-72
2022/11/29 10:55:53;;;;;;;11.73;6.32;;;9.30;82.80;;;;;;5015746;28;20045;-72
2022/11/29 10:58:24;;;;;;;9.05;6.10;;;9.40;82.90;;;;;;5015434;28;20045;-72
2022/11/29 11:01:08;;;;;;;10.95;5.68;;;9.40;82.80;;;;;;5015470;28;20052;-72
2022/11/29 11:03:41;;;;;;;8.68;5.80;;;9.40;82.90;;;;;;5013916;28;20037;-72
2022/11/29 11:06:23;;;;;;;10.85;6.28;;;9.50;83.10;;;;;;4998313;28;20095;-72
2022/11/29 11:08:54;;;;;;;13.27;5.72;;;9.50;83.20;;;;;;5015168;28;20042;-72
2022/11/29 11:11:31;;;;;;;9.75;5.80;;;9.50;83.30;;;;;;5015440;28;20396;-72
2022/11/29 11:14:01;;;;;;;14.25;6.30;;;9.60;83.40;;;;;;5014980;28;20053;-72
2022/11/29 11:16:27;;;;;;;8.93;5.63;;;9.60;83.40;;;;;;4998854;28;20128;-72
2022/11/29 11:18:54;;;;;;;10.75;6.10;;;9.60;83.40;;;;;;5015153;28;20129;-72
2022/11/29 11:21:24;;;;;;;10.25;6.00;;;9.70;83.40;;;;;;5013438;28;20116;-72
2022/11/29 11:23:58;;;;;;;11.90;6.10;;;9.70;83.30;;;;;;5014924;28;20041;-73
2022/11/29 11:26:25;;;;;;;10.38;5.55;;;9.70;83.30;;;;;;4998639;28;20049;-72
2022/11/29 11:28:51;;;;;;;8.70;5.30;;;9.80;83.30;;;;;;5015262;28;20049;-72
2022/11/29 11:31:33;;;;;;;10.85;5.68;;;9.80;83.10;;;;;;5014980;28;20446;-72
2022/11/29 11:34:30;;;;;;;10.60;5.63;;;9.80;83.10;;;;;;5015201;28;20044;-72
2022/11/29 11:37:14;;;;;;;12.57;6.32;;;9.90;83.00;;;;;;5013388;28;20099;-72
2022/11/29 11:39:44;;;;;;;8.52;5.50;;;9.90;83.00;;;;;;5015013;28;20072;-72
2022/11/29 11:42:37;;;;;;;14.20;7.18;;;9.90;83.00;;;;;;5015019;28;20051;-72
2022/11/29 11:45:12;;;;;;;12.48;6.15;;;10.00;83.10;;;;;;5014834;28;20041;-72
2022/11/29 11:47:54;;;;;;;12.73;6.05;;;10.00;83.10;;;;;;5017166;28;20041;-72
2022/11/29 11:50:41;;;;;;;13.55;6.22;;;10.00;83.00;;;;;;5018874;28;20041;-72
2022/11/29 11:53:37;;;;;;;13.65;6.00;;;10.00;83.00;;;;;;5017440;28;20401;-72
2022/11/29 11:56:07;;;;;;;13.75;6.50;;;10.00;83.00;;;;;;5018101;28;20053;-72
2022/11/29 11:58:59;;;;;;;14.68;6.93;;;10.00;83.00;;;;;;5018668;28;20041;-72
2022/11/29 12:01:35;;;;;;;8.93;5.47;;;10.10;83.10;;;;;;5001822;28;20049;-72
2022/11/29 12:04:03;;;;;;;13.50;6.63;;;10.10;83.10;;;;;;5002164;28;20037;-72
2022/11/29 12:06:42;;;;;;;13.80;5.70;;;10.10;83.00;;;;;;5018446;28;20041;-72
2022/11/29 12:09:08;;;;;;;12.23;6.10;;;10.10;82.90;;;;;;5000516;28;20087;-72
2022/11/29 12:11:52;;;;;;;12.23;5.75;;;10.10;82.90;;;;;;5018450;28;20488;-72
2022/11/29 12:14:24;;;;;;;12.57;6.38;;;10.20;83.30;;;;;;5014829;28;20089;-72
2022/11/29 12:17:20;;;;;;;9.43;5.45;;;10.20;82.90;;;;;;5015020;28;20048;-72
2022/11/29 12:19:58;;;;;;;12.55;6.32;;;10.20;82.90;;;;;;5015315;28;20049;-72
2022/11/29 12:22:31;;;;;;;13.95;6.10;;;10.20;83.00;;;;;;5011814;28;20049;-72
2022/11/29 12:25:03;;;;;;;11.85;5.68;;;10.30;83.10;;;;;;4995394;28;20046;-72
2022/11/29 12:27:30;;;;;;;9.30;5.55;;;10.20;83.00;;;;;;4995235;28;20049;-72
2022/11/29 12:29:55;;;;;;;12.45;5.82;;;10.30;82.90;;;;;;4995279;28;20042;-72
2022/11/29 12:32:45;;;;;;;9.50;5.88;;;10.30;82.90;;;;;;4979071;28;20038;-72
2022/11/29 12:35:36;;;;;;;14.48;6.05;;;10.30;82.80;;;;;;4995453;28;20039;-72
2022/11/29 12:38:24;;;;;;;13.43;5.38;;;10.30;82.80;;;;;;4995082;28;20038;-72
2022/11/29 12:40:57;;;;;;;11.65;5.53;;;10.30;82.80;;;;;;4975615;28;20085;-72
2022/11/29 12:43:31;;;;;;;16.13;7.18;;;10.30;82.90;;;;;;4975524;28;20050;-72
2022/11/29 12:46:02;;;;;;;14.27;6.07;;;10.30;82.80;;;;;;4959438;28;20137;-72
2022/11/29 12:49:04;;;;;;;11.57;5.97;;;10.30;82.90;;;;;;4975434;28;20050;-72
2022/11/29 12:52:09;;;;;;;10.35;5.82;;;10.30;82.90;;;;;;4927771;28;20070;-72
2022/11/29 12:54:39;;;;;;;10.98;5.45;;;10.40;83.00;;;;;;4978255;28;20159;-72
2022/11/29 12:57:21;;;;;;;10.18;5.18;;;10.30;83.00;;;;;;4994958;28;20046;-72
2022/11/29 13:00:01;;;;;;;14.98;5.95;;;10.30;83.00;;;;;;4993505;28;20490;-72
2022/11/29 13:02:42;;;;;;;10.25;5.78;;;10.30;83.10;;;;;;4994661;28;20053;-72
2022/11/29 13:05:44;;;;;;;11.68;5.10;;;10.30;83.10;;;;;;4994544;28;20722;-71
2022/11/29 13:08:38;;;;;;;9.48;5.75;;;10.30;82.90;;;;;;4978231;28;20046;-71
2022/11/29 13:11:24;;;;;;;10.05;5.88;;;10.30;83.00;;;;;;4995797;28;20116;-72
2022/11/29 13:14:02;;;;;;;12.57;6.78;;;10.30;82.90;;;;;;4978197;28;20375;-71
2022/11/29 13:16:35;;;;;;;10.13;5.57;;;10.40;83.00;;;;;;4978768;28;20073;-72
2022/11/29 13:19:23;;;;;;;11.38;5.75;;;10.40;82.90;;;;;;4994336;28;20105;-71
2022/11/29 13:22:08;;;;;;;14.18;6.60;;;10.40;82.80;;;;;;4978178;28;20074;-71
2022/11/29 13:24:40;;;;;;;14.73;7.07;;;10.40;82.80;;;;;;4994237;28;20042;-72
2022/11/29 13:27:06;;;;;;;13.27;6.65;;;10.40;82.90;;;;;;4994086;28;20050;-72
2022/11/29 13:29:33;;;;;;;14.45;6.70;;;10.30;82.80;;;;;;4975054;28;20387;-72
2022/11/29 13:32:00;;;;;;;12.27;5.75;;;10.40;82.90;;;;;;4974664;28;20490;-72
2022/11/29 13:34:41;;;;;;;15.23;5.72;;;10.40;82.90;;;;;;4958543;28;20046;-72
2022/11/29 13:37:31;;;;;;;12.48;6.55;;;10.40;82.80;;;;;;4974638;28;20053;-71
2022/11/29 13:40:25;;;;;;;10.32;5.72;;;10.40;82.80;;;;;;4974802;28;20154;-72